National Stock Yards, Illinois
Current Conditions -  °F | °C
As of 2:53 AM on Friday 28 Nov 2014 (Local Time) from KCPS Reporting Station
Clear Clear  
Wind Chill: 18°   Ceiling: Unl
Heat Index: 26°   Visibility: 10mi
Dew Point: 20°   Wind: 7mph
Humidity: 78%   Direction: 140°SE
Pressure: 30.4"   Gusts: NA
Location:  38.66°N, 90.17°W
Report Text: KCPS 280853Z AUTO 14006KT 10SM CLR M03/M07 A3040 RMK AO2 SLP298 T10331067 56012 TSNO
Loading
Personal Weather Stations






























Interactive Weather Map New forecast layout! Learn more

10-Day Weather Forecast

Advertisements
Track Severe Weather on mobile